Time;durP1;ratioP1;P1;durP2;ratioP2;P2;SDS_P1;SDS_P2;PMS_P1;PMS_P2;Temp;Humidity;BMP_temperature;BMP_pressure;BME280_temperature;BME280_humidity;BME280_pressure;Samples;Min_cycle;Max_cycle;Signal;HPM_P1;HPM_P2
2023/03/24 00:01:44;;;;;;;7.85;1.90;;;;;;;;;;6214998;28;20454;-75
2023/03/24 00:04:52;;;;;;;8.30;1.83;;;;;;;;;;6213768;28;20296;-74
2023/03/24 00:08:01;;;;;;;10.88;1.75;;;;;;;;;;6214468;28;20297;-75
2023/03/24 00:11:10;;;;;;;7.40;2.00;;;;;;;;;;6218498;28;20494;-76
2023/03/24 00:14:15;;;;;;;3.53;1.73;;;;;;;;;;6213787;28;20492;-75
2023/03/24 00:17:24;;;;;;;7.53;1.75;;;;;;;;;;6212563;28;20481;-75
2023/03/24 00:20:31;;;;;;;11.43;1.92;;;;;;;;;;6213960;28;20292;-74
2023/03/24 00:23:41;;;;;;;7.88;1.73;;;;;;;;;;6213778;28;20292;-75
2023/03/24 00:26:47;;;;;;;9.68;1.83;;;;;;;;;;6213835;28;20465;-76
2023/03/24 00:29:52;;;;;;;3.80;1.60;;;;;;;;;;6213427;28;20465;-75
2023/03/24 00:33:00;;;;;;;3.88;1.70;;;;;;;;;;6212353;28;20294;-75
2023/03/24 00:36:10;;;;;;;6.80;1.77;;;;;;;;;;6213469;28;20309;-75
2023/03/24 00:39:19;;;;;;;5.32;2.15;;;;;;;;;;6212179;28;20293;-75
2023/03/24 00:42:25;;;;;;;6.25;1.90;;;;;;;;;;6213006;28;20300;-75
2023/03/24 00:45:33;;;;;;;6.38;1.80;;;;;;;;;;6211826;28;20297;-75
2023/03/24 00:48:40;;;;;;;6.47;1.85;;;;;;;;;;6212136;28;20499;-75
2023/03/24 00:51:46;;;;;;;6.68;1.95;;;;;;;;;;6212155;28;20329;-75
2023/03/24 00:54:57;;;;;;;10.32;1.90;;;;;;;;;;6211875;28;20317;-75
2023/03/24 00:58:02;;;;;;;5.93;2.33;;;;;;;;;;6211930;28;20297;-75
2023/03/24 01:01:08;;;;;;;7.45;2.00;;;;;;;;;;6212464;28;20308;-75
2023/03/24 01:04:13;;;;;;;9.38;1.95;;;;;;;;;;6210970;28;20310;-75
2023/03/24 01:07:19;;;;;;;8.02;2.05;;;;;;;;;;6213032;28;20297;-74
2023/03/24 01:10:26;;;;;;;5.70;1.95;;;;;;;;;;6216840;28;20285;-74
2023/03/24 01:13:33;;;;;;;9.73;2.00;;;;;;;;;;6211865;28;20301;-75
2023/03/24 01:16:38;;;;;;;9.02;1.90;;;;;;;;;;6212459;28;20284;-74
2023/03/24 01:19:43;;;;;;;6.72;2.00;;;;;;;;;;6212312;28;20297;-74
2023/03/24 01:22:49;;;;;;;12.55;2.53;;;;;;;;;;6212063;28;20298;-75
2023/03/24 01:25:55;;;;;;;8.70;2.05;;;;;;;;;;6211634;28;20509;-75
2023/03/24 01:29:00;;;;;;;12.82;2.20;;;;;;;;;;6211214;28;20293;-76
2023/03/24 01:32:06;;;;;;;7.97;1.88;;;;;;;;;;6211475;28;20288;-76
2023/03/24 01:35:12;;;;;;;5.55;2.13;;;;;;;;;;6210899;28;20289;-74
2023/03/24 01:38:18;;;;;;;13.68;2.38;;;;;;;;;;6212035;28;20289;-74
2023/03/24 01:41:24;;;;;;;11.75;1.90;;;;;;;;;;6211033;28;20301;-75
2023/03/24 01:44:33;;;;;;;19.08;2.53;;;;;;;;;;6211035;28;20289;-75
2023/03/24 01:47:38;;;;;;;6.25;2.42;;;;;;;;;;6211675;28;20297;-75
2023/03/24 01:50:46;;;;;;;9.10;2.17;;;;;;;;;;6211219;28;20480;-75
2023/03/24 01:54:01;;;;;;;11.60;2.95;;;;;;;;;;6211612;28;20297;-75
2023/03/24 01:57:12;;;;;;;5.97;1.98;;;;;;;;;;6211941;28;20300;-76
2023/03/24 02:00:20;;;;;;;10.85;2.45;;;;;;;;;;6186484;28;20309;-75
2023/03/24 02:03:52;;;;;;;9.20;2.10;;;;;;;;;;6203723;23;20593;-76
2023/03/24 02:07:01;;;;;;;8.63;1.92;;;;;;;;;;6203799;28;20297;-77
2023/03/24 02:10:09;;;;;;;13.40;3.67;;;;;;;;;;6210863;28;20285;-76
2023/03/24 02:13:16;;;;;;;11.40;2.40;;;;;;;;;;6212601;28;20301;-76
2023/03/24 02:16:48;;;;;;;13.57;2.30;;;;;;;;;;6211449;28;20288;-75
2023/03/24 02:20:28;;;;;;;13.95;2.60;;;;;;;;;;6210070;28;20407;-76
2023/03/24 02:23:57;;;;;;;13.90;2.80;;;;;;;;;;6211321;28;20293;-77
2023/03/24 02:27:08;;;;;;;12.20;2.50;;;;;;;;;;6202434;28;20592;-75
2023/03/24 02:30:32;;;;;;;13.32;2.42;;;;;;;;;;6243068;28;20471;-76
2023/03/24 02:34:11;;;;;;;10.63;2.10;;;;;;;;;;6211809;28;20314;-76
2023/03/24 02:37:47;;;;;;;13.13;2.72;;;;;;;;;;6210485;28;20328;-76
2023/03/24 02:41:00;;;;;;;12.52;2.40;;;;;;;;;;6233872;28;20276;-76
2023/03/24 02:44:09;;;;;;;8.55;2.58;;;;;;;;;;6236212;28;20288;-75
2023/03/24 02:47:20;;;;;;;12.55;2.60;;;;;;;;;;6235540;28;20320;-76
2023/03/24 02:50:30;;;;;;;10.70;2.70;;;;;;;;;;6234270;28;20296;-76
2023/03/24 02:53:41;;;;;;;12.88;2.10;;;;;;;;;;6234777;28;20288;-78
2023/03/24 02:57:05;;;;;;;14.35;2.08;;;;;;;;;;6235163;28;20292;-75
2023/03/24 03:00:35;;;;;;;8.13;2.28;;;;;;;;;;6234625;28;20284;-76
2023/03/24 03:03:47;;;;;;;13.00;2.33;;;;;;;;;;6235123;28;20478;-75
2023/03/24 03:06:55;;;;;;;15.70;2.45;;;;;;;;;;6234370;28;20292;-76
2023/03/24 03:10:06;;;;;;;11.80;2.30;;;;;;;;;;6215141;28;20585;-76
2023/03/24 03:13:16;;;;;;;14.40;2.43;;;;;;;;;;6217656;28;20292;-76
2023/03/24 03:16:24;;;;;;;6.55;2.28;;;;;;;;;;6235072;28;20312;-76
2023/03/24 03:19:33;;;;;;;12.65;2.88;;;;;;;;;;6235434;28;20304;-75
2023/03/24 03:22:42;;;;;;;6.93;2.30;;;;;;;;;;6234285;28;20268;-76
2023/03/24 03:25:50;;;;;;;12.95;2.42;;;;;;;;;;6234656;28;20260;-76
2023/03/24 03:29:00;;;;;;;8.50;2.05;;;;;;;;;;6233929;28;20301;-75
2023/03/24 03:32:09;;;;;;;11.90;2.10;;;;;;;;;;6235556;28;20284;-76
2023/03/24 03:35:16;;;;;;;10.60;2.17;;;;;;;;;;6234955;28;20300;-75
2023/03/24 03:38:25;;;;;;;13.95;2.90;;;;;;;;;;6234751;28;20308;-74
2023/03/24 03:41:31;;;;;;;14.13;2.40;;;;;;;;;;6234992;28;20292;-75
2023/03/24 03:44:37;;;;;;;11.02;2.10;;;;;;;;;;6234658;28;20300;-76
2023/03/24 03:47:43;;;;;;;8.38;2.15;;;;;;;;;;6234087;28;20296;-75
2023/03/24 03:50:48;;;;;;;13.02;2.40;;;;;;;;;;6234496;28;20300;-76
2023/03/24 03:54:10;;;;;;;10.43;2.00;;;;;;;;;;6233708;28;20491;-75
2023/03/24 03:57:16;;;;;;;10.82;2.45;;;;;;;;;;6234191;28;20304;-75
2023/03/24 04:00:43;;;;;;;18.48;3.00;;;;;;;;;;6233814;28;20304;-76
2023/03/24 04:04:47;;;;;;;9.20;2.42;;;;;;;;;;6221398;28;20304;-75
2023/03/24 04:08:23;;;;;;;9.38;2.22;;;;;;;;;;6230413;28;20333;-77
2023/03/24 04:11:49;;;;;;;8.50;2.30;;;;;;;;;;6224206;28;20285;-76
2023/03/24 04:15:37;;;;;;;7.38;1.83;;;;;;;;;;6234524;28;20321;-76
2023/03/24 04:19:36;;;;;;;8.80;2.23;;;;;;;;;;6176212;28;20298;-75
2023/03/24 04:22:52;;;;;;;11.83;2.47;;;;;;;;;;6213169;28;20408;-75
2023/03/24 04:26:09;;;;;;;6.38;2.00;;;;;;;;;;6213583;28;20301;-75
2023/03/24 04:29:21;;;;;;;10.73;2.10;;;;;;;;;;6212867;28;20297;-74
2023/03/24 04:32:31;;;;;;;6.00;2.28;;;;;;;;;;6213599;28;20301;-75
2023/03/24 04:35:42;;;;;;;7.93;2.40;;;;;;;;;;6214817;28;20297;-75
2023/03/24 04:39:12;;;;;;;10.17;2.23;;;;;;;;;;6233150;28;20336;-76
2023/03/24 04:42:25;;;;;;;8.32;2.38;;;;;;;;;;6237855;28;20316;-75
2023/03/24 04:45:32;;;;;;;12.17;2.53;;;;;;;;;;6237341;28;20576;-75
2023/03/24 04:48:54;;;;;;;13.00;2.50;;;;;;;;;;6237430;28;20312;-75
2023/03/24 04:52:12;;;;;;;10.23;2.20;;;;;;;;;;6237616;28;20288;-76
2023/03/24 04:55:47;;;;;;;15.83;2.63;;;;;;;;;;6238403;28;20293;-76
2023/03/24 04:58:55;;;;;;;17.67;2.33;;;;;;;;;;6236386;28;20298;-77
2023/03/24 05:02:00;;;;;;;9.95;2.10;;;;;;;;;;6237192;28;20480;-77
2023/03/24 05:05:07;;;;;;;16.57;3.70;;;;;;;;;;6237434;28;20296;-76
2023/03/24 05:08:21;;;;;;;8.55;2.42;;;;;;;;;;6236708;28;20304;-75
2023/03/24 05:11:28;;;;;;;8.37;2.10;;;;;;;;;;6224036;28;20295;-75
2023/03/24 05:14:42;;;;;;;8.93;2.20;;;;;;;;;;6237107;28;20430;-75
2023/03/24 05:17:48;;;;;;;7.47;2.00;;;;;;;;;;6236459;28;20299;-76
2023/03/24 05:20:53;;;;;;;6.10;2.40;;;;;;;;;;6236891;28;20292;-76
2023/03/24 05:24:00;;;;;;;11.87;2.33;;;;;;;;;;6235891;28;20488;-75
2023/03/24 05:27:06;;;;;;;7.82;2.00;;;;;;;;;;6236739;28;20297;-75
2023/03/24 05:30:12;;;;;;;11.23;1.92;;;;;;;;;;6236379;28;20239;-76
2023/03/24 05:33:19;;;;;;;11.97;2.20;;;;;;;;;;6236070;28;20596;-76
2023/03/24 05:36:24;;;;;;;12.88;2.22;;;;;;;;;;6236933;28;20296;-75
2023/03/24 05:39:37;;;;;;;7.72;2.00;;;;;;;;;;6236323;28;20440;-76
2023/03/24 05:42:52;;;;;;;8.88;2.45;;;;;;;;;;6236186;28;20343;-76
2023/03/24 05:46:01;;;;;;;7.77;2.20;;;;;;;;;;6236580;28;20453;-76
2023/03/24 05:49:09;;;;;;;12.45;2.42;;;;;;;;;;6235675;28;20296;-76
2023/03/24 05:52:19;;;;;;;10.65;2.42;;;;;;;;;;6236560;28;20384;-77
2023/03/24 05:55:27;;;;;;;8.45;2.22;;;;;;;;;;6237288;28;20311;-77
2023/03/24 05:58:39;;;;;;;12.48;2.55;;;;;;;;;;6235060;28;20297;-75
2023/03/24 06:01:44;;;;;;;14.45;2.15;;;;;;;;;;6235951;28;20278;-75
2023/03/24 06:04:57;;;;;;;12.43;2.60;;;;;;;;;;6235338;28;20288;-76
2023/03/24 06:08:04;;;;;;;12.73;2.40;;;;;;;;;;6235365;28;20379;-75
2023/03/24 06:11:14;;;;;;;9.32;2.30;;;;;;;;;;6222641;28;20477;-76
2023/03/24 06:14:30;;;;;;;4.65;2.22;;;;;;;;;;6235491;28;20296;-77
2023/03/24 06:17:44;;;;;;;12.50;2.65;;;;;;;;;;6235256;28;20486;-76
2023/03/24 06:21:01;;;;;;;13.25;2.78;;;;;;;;;;6235607;28;20304;-76
2023/03/24 06:24:16;;;;;;;15.63;2.47;;;;;;;;;;6234991;28;20299;-75
2023/03/24 06:27:24;;;;;;;12.32;2.63;;;;;;;;;;6236000;28;20600;-76
2023/03/24 06:30:31;;;;;;;13.00;2.50;;;;;;;;;;6235813;28;20569;-76
2023/03/24 06:33:37;;;;;;;11.88;3.28;;;;;;;;;;6236005;28;20381;-76
2023/03/24 06:36:43;;;;;;;12.38;2.35;;;;;;;;;;6235651;28;20579;-75
2023/03/24 06:39:49;;;;;;;18.45;3.15;;;;;;;;;;6234720;28;20315;-75
2023/03/24 06:43:00;;;;;;;12.77;2.55;;;;;;;;;;6234004;28;20301;-74
2023/03/24 06:46:08;;;;;;;12.77;2.67;;;;;;;;;;6235509;28;20288;-75
2023/03/24 06:49:17;;;;;;;10.40;2.22;;;;;;;;;;6234703;28;20292;-75
2023/03/24 06:52:23;;;;;;;11.15;2.60;;;;;;;;;;6235601;28;20464;-75
2023/03/24 06:55:29;;;;;;;13.93;2.83;;;;;;;;;;6234997;28;20296;-75
2023/03/24 06:58:36;;;;;;;7.78;2.53;;;;;;;;;;6234816;28;20300;-76
2023/03/24 07:01:46;;;;;;;13.18;2.65;;;;;;;;;;6233907;28;20464;-75
2023/03/24 07:05:05;;;;;;;21.58;2.92;;;;;;;;;;6235401;28;20295;-75
2023/03/24 07:08:18;;;;;;;7.57;2.42;;;;;;;;;;6234023;28;20296;-75
2023/03/24 07:11:33;;;;;;;13.30;2.50;;;;;;;;;;6222657;28;20292;-74
2023/03/24 07:14:41;;;;;;;10.25;2.75;;;;;;;;;;6233762;28;20288;-75
2023/03/24 07:17:46;;;;;;;11.88;2.83;;;;;;;;;;6233426;28;20292;-75
2023/03/24 07:21:08;;;;;;;7.20;2.00;;;;;;;;;;6234871;28;20466;-75
2023/03/24 07:24:14;;;;;;;15.25;2.90;;;;;;;;;;6234110;28;20296;-74
2023/03/24 07:27:32;;;;;;;11.30;2.95;;;;;;;;;;6234062;28;20436;-76
2023/03/24 07:30:39;;;;;;;12.55;2.38;;;;;;;;;;6233741;28;20296;-76
2023/03/24 07:33:46;;;;;;;17.25;2.65;;;;;;;;;;6234993;28;20296;-75
2023/03/24 07:36:51;;;;;;;10.77;2.20;;;;;;;;;;6234421;28;20304;-75
2023/03/24 07:39:57;;;;;;;10.60;2.88;;;;;;;;;;6233714;28;20297;-75
2023/03/24 07:43:04;;;;;;;6.07;3.25;;;;;;;;;;6233722;28;20312;-75
2023/03/24 07:46:34;;;;;;;18.80;2.47;;;;;;;;;;6233543;28;20311;-75
2023/03/24 07:49:39;;;;;;;14.60;2.72;;;;;;;;;;6232676;28;20296;-75
2023/03/24 07:52:49;;;;;;;10.07;2.60;;;;;;;;;;6233512;28;20288;-76
2023/03/24 07:55:57;;;;;;;16.92;3.10;;;;;;;;;;6238081;28;20533;-75
2023/03/24 07:59:02;;;;;;;9.93;2.88;;;;;;;;;;6239023;28;20288;-75
2023/03/24 08:02:41;;;;;;;12.27;2.40;;;;;;;;;;6229562;28;20309;-74
2023/03/24 08:06:19;;;;;;;7.32;3.20;;;;;;;;;;6216311;28;20293;-75
2023/03/24 08:09:28;;;;;;;9.38;3.05;;;;;;;;;;6239128;28;20573;-75
2023/03/24 08:12:33;;;;;;;8.75;2.42;;;;;;;;;;6227511;28;20305;-74
2023/03/24 08:15:38;;;;;;;13.40;3.03;;;;;;;;;;6239001;28;20298;-75
2023/03/24 08:18:45;;;;;;;15.48;3.10;;;;;;;;;;6239289;28;20296;-75
2023/03/24 08:21:50;;;;;;;10.20;2.57;;;;;;;;;;6239484;28;20344;-75
2023/03/24 08:24:56;;;;;;;6.55;2.22;;;;;;;;;;6238703;28;20304;-76
2023/03/24 08:28:01;;;;;;;12.88;3.05;;;;;;;;;;6238968;28;20304;-76
2023/03/24 08:31:06;;;;;;;12.32;2.70;;;;;;;;;;6239436;28;20296;-75
2023/03/24 08:34:13;;;;;;;12.05;3.10;;;;;;;;;;6239565;28;20320;-75
2023/03/24 08:37:18;;;;;;;14.15;3.03;;;;;;;;;;6238883;28;20292;-75
2023/03/24 08:40:25;;;;;;;13.80;3.55;;;;;;;;;;6237362;28;20304;-75
2023/03/24 08:43:31;;;;;;;10.50;2.40;;;;;;;;;;6238444;28;20457;-74
2023/03/24 08:46:36;;;;;;;26.30;2.83;;;;;;;;;;6238722;28;20372;-75
2023/03/24 08:49:43;;;;;;;15.60;2.83;;;;;;;;;;6238226;28;20460;-75
2023/03/24 08:52:48;;;;;;;12.68;3.35;;;;;;;;;;6236892;28;20300;-75
2023/03/24 08:55:54;;;;;;;10.88;2.35;;;;;;;;;;6237454;28;20340;-74
2023/03/24 08:58:59;;;;;;;15.00;2.85;;;;;;;;;;6238247;28;20569;-75
2023/03/24 09:02:04;;;;;;;26.15;3.50;;;;;;;;;;6238743;28;20292;-75
2023/03/24 09:05:14;;;;;;;14.40;2.90;;;;;;;;;;6237544;28;20288;-76
2023/03/24 09:08:20;;;;;;;11.02;2.65;;;;;;;;;;6237134;28;20296;-74
2023/03/24 09:11:25;;;;;;;11.65;2.97;;;;;;;;;;6225630;28;20289;-75
2023/03/24 09:14:30;;;;;;;18.88;3.15;;;;;;;;;;6238212;28;20300;-74
2023/03/24 09:17:36;;;;;;;17.00;3.58;;;;;;;;;;6238146;28;20305;-75
2023/03/24 09:20:42;;;;;;;22.98;3.88;;;;;;;;;;6237353;28;20301;-76
2023/03/24 09:23:48;;;;;;;7.60;2.97;;;;;;;;;;6237518;28;20313;-76
2023/03/24 09:26:53;;;;;;;15.23;3.10;;;;;;;;;;6238406;28;20288;-76
2023/03/24 09:29:58;;;;;;;11.35;2.85;;;;;;;;;;6237466;28;20312;-75
2023/03/24 09:33:03;;;;;;;13.48;3.30;;;;;;;;;;6237160;28;20311;-76
2023/03/24 09:36:11;;;;;;;8.85;3.17;;;;;;;;;;6237913;28;20292;-74
2023/03/24 09:39:16;;;;;;;14.38;2.58;;;;;;;;;;6237464;28;20304;-75
2023/03/24 09:42:25;;;;;;;14.60;2.90;;;;;;;;;;6238191;28;20292;-77
2023/03/24 09:45:33;;;;;;;22.10;2.97;;;;;;;;;;6237871;28;20301;-76
2023/03/24 09:48:42;;;;;;;11.02;3.20;;;;;;;;;;6236050;28;20307;-76
2023/03/24 09:51:49;;;;;;;17.10;3.13;;;;;;;;;;6237387;28;20296;-74
2023/03/24 09:54:57;;;;;;;10.77;2.78;;;;;;;;;;6237228;28;20300;-75
2023/03/24 09:58:07;;;;;;;12.23;3.95;;;;;;;;;;6237184;28;20296;-76
2023/03/24 10:01:15;;;;;;;10.82;2.80;;;;;;;;;;6222578;28;20302;-76
2023/03/24 10:04:22;;;;;;;15.55;4.07;;;;;;;;;;6213016;28;20305;-76
2023/03/24 10:07:33;;;;;;;12.18;3.00;;;;;;;;;;6213198;28;20483;-75
2023/03/24 10:10:43;;;;;;;12.52;3.05;;;;;;;;;;6220571;28;20292;-75
2023/03/24 10:13:57;;;;;;;17.83;3.33;;;;;;;;;;6212631;28;20301;-75
2023/03/24 10:17:08;;;;;;;14.48;3.35;;;;;;;;;;6212014;28;20565;-76
2023/03/24 10:20:25;;;;;;;20.08;3.47;;;;;;;;;;6211802;28;20290;-75
2023/03/24 10:23:37;;;;;;;13.88;2.80;;;;;;;;;;6212118;28;20305;-75
2023/03/24 10:26:48;;;;;;;13.57;2.53;;;;;;;;;;6212156;28;20301;-75
2023/03/24 10:29:57;;;;;;;18.77;3.47;;;;;;;;;;6211554;28;20336;-76
2023/03/24 10:33:03;;;;;;;16.55;3.50;;;;;;;;;;6211396;28;20538;-75
2023/03/24 10:36:13;;;;;;;20.40;3.25;;;;;;;;;;6211555;28;20292;-75
2023/03/24 10:39:20;;;;;;;13.98;3.10;;;;;;;;;;6211229;28;20576;-76
2023/03/24 10:42:42;;;;;;;10.63;3.13;;;;;;;;;;6210055;28;20306;-76
2023/03/24 10:45:49;;;;;;;24.75;3.40;;;;;;;;;;6210742;28;20294;-76
2023/03/24 10:49:08;;;;;;;23.95;3.38;;;;;;;;;;6211105;28;20290;-75
2023/03/24 10:52:14;;;;;;;25.30;3.63;;;;;;;;;;6211943;28;20304;-76
2023/03/24 10:55:23;;;;;;;22.50;2.70;;;;;;;;;;6211278;28;20305;-76
2023/03/24 10:58:36;;;;;;;7.38;2.78;;;;;;;;;;6211820;28;20296;-75
2023/03/24 11:01:42;;;;;;;15.35;3.08;;;;;;;;;;6211211;28;20277;-75
2023/03/24 11:04:53;;;;;;;17.63;3.08;;;;;;;;;;6210924;28;20293;-73
2023/03/24 11:08:11;;;;;;;10.40;2.72;;;;;;;;;;6210750;28;20316;-74
2023/03/24 11:11:30;;;;;;;12.43;4.03;;;;;;;;;;6224004;28;20296;-75
2023/03/24 11:14:45;;;;;;;12.70;3.25;;;;;;;;;;6209895;28;20586;-77
2023/03/24 11:17:55;;;;;;;9.85;3.03;;;;;;;;;;6210384;28;20297;-74
2023/03/24 11:21:04;;;;;;;16.63;3.17;;;;;;;;;;6211676;28;20465;-76
2023/03/24 11:24:13;;;;;;;14.75;3.50;;;;;;;;;;6210873;28;20300;-76
2023/03/24 11:27:20;;;;;;;14.10;3.28;;;;;;;;;;6211052;28;20289;-75
2023/03/24 11:30:26;;;;;;;17.98;3.10;;;;;;;;;;6209249;28;20384;-75
2023/03/24 11:33:33;;;;;;;11.15;2.63;;;;;;;;;;6210383;28;20308;-74
2023/03/24 11:36:42;;;;;;;10.13;3.08;;;;;;;;;;6210605;28;20293;-75
2023/03/24 11:40:17;;;;;;;12.07;2.95;;;;;;;;;;6209980;28;20292;-76
2023/03/24 11:43:26;;;;;;;12.98;3.22;;;;;;;;;;6210243;28;20308;-76
2023/03/24 11:46:31;;;;;;;10.43;3.45;;;;;;;;;;6210881;28;20301;-74
2023/03/24 11:49:39;;;;;;;20.90;3.67;;;;;;;;;;6209788;28;20297;-75
2023/03/24 11:52:47;;;;;;;13.30;3.22;;;;;;;;;;6210202;28;20265;-76
2023/03/24 11:55:56;;;;;;;14.98;2.70;;;;;;;;;;6211107;28;20265;-76
2023/03/24 11:59:08;;;;;;;9.93;3.20;;;;;;;;;;6210529;28;20313;-76
2023/03/24 12:02:21;;;;;;;17.15;3.47;;;;;;;;;;6211167;28;20328;-75
2023/03/24 12:05:32;;;;;;;13.20;3.15;;;;;;;;;;6208851;28;20309;-74
2023/03/24 12:08:46;;;;;;;14.02;3.17;;;;;;;;;;6209822;28;20297;-75
2023/03/24 12:12:24;;;;;;;6.68;2.78;;;;;;;;;;6222150;28;20293;-75
2023/03/24 12:15:41;;;;;;;12.13;3.28;;;;;;;;;;6210699;28;20344;-77
2023/03/24 12:18:56;;;;;;;13.60;3.53;;;;;;;;;;6210706;28;20293;-76
2023/03/24 12:22:09;;;;;;;13.20;3.17;;;;;;;;;;6210918;28;20293;-75
2023/03/24 12:25:42;;;;;;;10.27;2.80;;;;;;;;;;6209531;28;20308;-74
2023/03/24 12:28:58;;;;;;;10.60;3.00;;;;;;;;;;6209642;28;20581;-73
2023/03/24 12:32:31;;;;;;;8.73;2.95;;;;;;;;;;6210302;28;20289;-74
2023/03/24 12:36:02;;;;;;;10.10;2.50;;;;;;;;;;6207781;28;20306;-75
2023/03/24 12:39:11;;;;;;;9.27;3.08;;;;;;;;;;6210197;28;20302;-74
2023/03/24 12:42:17;;;;;;;10.95;3.30;;;;;;;;;;6213204;28;20333;-75
2023/03/24 12:45:29;;;;;;;13.57;2.60;;;;;;;;;;6213809;28;20297;-76
2023/03/24 12:48:50;;;;;;;5.93;2.30;;;;;;;;;;6214806;28;20294;-76
2023/03/24 12:52:15;;;;;;;9.73;2.70;;;;;;;;;;6214308;28;20293;-74
2023/03/24 12:55:24;;;;;;;10.63;2.80;;;;;;;;;;6213811;28;20305;-75
2023/03/24 12:58:40;;;;;;;6.53;2.42;;;;;;;;;;6213822;28;20297;-74
2023/03/24 13:01:47;;;;;;;3.08;1.98;;;;;;;;;;6213287;28;20277;-76
2023/03/24 13:04:57;;;;;;;2.83;2.03;;;;;;;;;;6213698;28;20301;-75
2023/03/24 13:08:05;;;;;;;5.85;1.98;;;;;;;;;;6213410;28;20285;-74
2023/03/24 13:11:13;;;;;;;5.90;2.10;;;;;;;;;;6226410;28;20336;-74
2023/03/24 13:14:49;;;;;;;2.20;1.60;;;;;;;;;;6212491;28;20546;-75
2023/03/24 13:18:03;;;;;;;3.13;1.60;;;;;;;;;;6213220;28;20298;-75
2023/03/24 13:21:15;;;;;;;1.98;1.67;;;;;;;;;;6213765;28;20289;-76
2023/03/24 13:24:20;;;;;;;3.03;1.55;;;;;;;;;;6213737;28;20301;-76
2023/03/24 13:27:31;;;;;;;1.85;1.75;;;;;;;;;;6212650;28;20301;-75
2023/03/24 13:30:38;;;;;;;2.60;1.50;;;;;;;;;;6213680;28;20302;-75
2023/03/24 13:33:44;;;;;;;1.88;1.73;;;;;;;;;;6212995;28;20392;-75
2023/03/24 13:36:54;;;;;;;3.40;1.60;;;;;;;;;;6213557;28;20293;-75
2023/03/24 13:40:01;;;;;;;1.70;1.60;;;;;;;;;;6213535;28;20365;-74
2023/03/24 13:43:11;;;;;;;1.33;1.30;;;;;;;;;;6212367;28;20293;-75
2023/03/24 13:46:16;;;;;;;6.07;1.60;;;;;;;;;;6213436;28;20293;-76
2023/03/24 13:49:22;;;;;;;1.35;1.35;;;;;;;;;;6212631;28;20301;-75
2023/03/24 13:52:32;;;;;;;1.77;1.67;;;;;;;;;;6213338;28;20293;-75
2023/03/24 13:55:39;;;;;;;2.97;1.30;;;;;;;;;;6212288;28;20365;-75
2023/03/24 13:59:22;;;;;;;1.30;1.30;;;;;;;;;;6212650;28;20617;-74
2023/03/24 14:02:45;;;;;;;1.77;1.45;;;;;;;;;;6146738;28;20299;-74
2023/03/24 14:05:59;;;;;;;1.50;1.40;;;;;;;;;;6187549;28;20329;-75
2023/03/24 14:09:07;;;;;;;4.18;1.45;;;;;;;;;;6188282;28;20301;-74
2023/03/24 14:12:22;;;;;;;1.23;1.20;;;;;;;;;;6210584;28;20285;-75
2023/03/24 14:15:28;;;;;;;1.75;1.20;;;;;;;;;;6212455;28;20301;-74
2023/03/24 14:18:41;;;;;;;3.25;1.23;;;;;;;;;;6212341;28;20317;-75
2023/03/24 14:21:53;;;;;;;1.00;1.00;;;;;;;;;;6212480;28;20363;-74
2023/03/24 14:25:00;;;;;;;1.38;1.30;;;;;;;;;;6211481;28;20312;-76
2023/03/24 14:28:20;;;;;;;1.00;1.00;;;;;;;;;;6212000;28;20577;-75
2023/03/24 14:31:29;;;;;;;1.73;1.25;;;;;;;;;;6210910;28;20297;-75
2023/03/24 14:34:36;;;;;;;1.33;1.20;;;;;;;;;;6211881;28;20305;-76
2023/03/24 14:37:49;;;;;;;1.00;1.00;;;;;;;;;;6211240;28;20265;-75
2023/03/24 14:41:00;;;;;;;1.40;1.40;;;;;;;;;;6212037;28;20285;-75
2023/03/24 14:44:06;;;;;;;1.10;1.10;;;;;;;;;;6212107;28;20288;-74
2023/03/24 14:47:16;;;;;;;3.55;1.17;;;;;;;;;;6211508;28;20293;-75
2023/03/24 14:50:23;;;;;;;1.98;1.20;;;;;;;;;;6212242;28;20296;-75
2023/03/24 14:53:28;;;;;;;1.00;1.00;;;;;;;;;;6210425;28;20297;-76
2023/03/24 14:56:39;;;;;;;0.90;0.90;;;;;;;;;;6212252;28;20309;-74
2023/03/24 14:59:48;;;;;;;1.00;1.00;;;;;;;;;;6211721;28;20471;-74
2023/03/24 15:02:55;;;;;;;1.10;1.10;;;;;;;;;;6211514;28;20306;-75
2023/03/24 15:06:14;;;;;;;1.30;1.20;;;;;;;;;;6211494;28;20294;-75
2023/03/24 15:09:20;;;;;;;1.45;1.20;;;;;;;;;;6211329;28;20360;-76
2023/03/24 15:12:26;;;;;;;1.00;1.00;;;;;;;;;;6211490;28;20296;-75
2023/03/24 15:15:32;;;;;;;1.05;1.05;;;;;;;;;;6211465;28;20297;-75
2023/03/24 15:18:42;;;;;;;1.20;1.20;;;;;;;;;;6211158;28;20300;-76
2023/03/24 15:22:07;;;;;;;1.08;1.08;;;;;;;;;;6211547;28;20497;-76
2023/03/24 15:25:14;;;;;;;1.58;1.58;;;;;;;;;;6209753;28;20293;-75
2023/03/24 15:28:22;;;;;;;1.58;1.40;;;;;;;;;;6212276;28;20304;-75
2023/03/24 15:31:30;;;;;;;1.35;1.35;;;;;;;;;;6211525;28;20293;-76
2023/03/24 15:34:38;;;;;;;1.33;1.33;;;;;;;;;;6211087;28;20293;-77
2023/03/24 15:37:47;;;;;;;2.33;2.22;;;;;;;;;;6209923;28;20273;-76
2023/03/24 15:40:56;;;;;;;2.03;1.63;;;;;;;;;;6210143;28;20460;-74
2023/03/24 15:44:09;;;;;;;2.07;1.87;;;;;;;;;;6210857;28;20302;-74
2023/03/24 15:47:18;;;;;;;4.07;2.13;;;;;;;;;;6211454;28;20360;-76
2023/03/24 15:50:32;;;;;;;2.20;2.10;;;;;;;;;;6210895;28;20317;-74
2023/03/24 15:53:42;;;;;;;2.03;1.90;;;;;;;;;;6210878;28;20345;-75
2023/03/24 15:57:01;;;;;;;2.03;2.03;;;;;;;;;;6210519;28;20297;-76
2023/03/24 16:00:15;;;;;;;2.10;2.10;;;;;;;;;;6209477;28;20309;-75
2023/03/24 16:03:25;;;;;;;2.90;2.80;;;;;;;;;;6210962;28;20297;-75
2023/03/24 16:06:34;;;;;;;3.00;2.20;;;;;;;;;;6211806;28;20293;-76
2023/03/24 16:09:39;;;;;;;1.80;1.80;;;;;;;;;;6211662;28;20297;-75
2023/03/24 16:12:45;;;;;;;2.67;2.47;;;;;;;;;;6234855;28;20474;-76
2023/03/24 16:15:56;;;;;;;1.92;1.90;;;;;;;;;;6236930;28;20296;-75
2023/03/24 16:19:03;;;;;;;1.97;1.80;;;;;;;;;;6240108;28;20296;-76
2023/03/24 16:22:11;;;;;;;1.90;1.80;;;;;;;;;;6238959;28;20303;-76
2023/03/24 16:25:17;;;;;;;3.57;1.90;;;;;;;;;;6240534;28;20494;-77
2023/03/24 16:28:23;;;;;;;1.90;1.80;;;;;;;;;;6239631;28;20390;-75
2023/03/24 16:31:33;;;;;;;1.95;1.83;;;;;;;;;;6238460;28;20292;-75
2023/03/24 16:34:39;;;;;;;1.70;1.70;;;;;;;;;;6238504;28;20481;-76
2023/03/24 16:37:45;;;;;;;1.65;1.63;;;;;;;;;;6239395;28;20284;-76
2023/03/24 16:40:52;;;;;;;1.75;1.75;;;;;;;;;;6238243;28;20268;-77
2023/03/24 16:43:57;;;;;;;2.60;2.17;;;;;;;;;;6221935;28;20300;-77
2023/03/24 16:47:09;;;;;;;2.83;2.63;;;;;;;;;;6238627;28;20300;-77
2023/03/24 16:50:25;;;;;;;2.88;2.60;;;;;;;;;;6241889;28;20297;-76
2023/03/24 16:53:30;;;;;;;3.10;2.80;;;;;;;;;;6241050;28;20292;-76
2023/03/24 16:56:39;;;;;;;3.60;3.40;;;;;;;;;;6249758;28;20296;-75
2023/03/24 16:59:44;;;;;;;3.90;3.07;;;;;;;;;;6253217;28;20257;-74
2023/03/24 17:02:52;;;;;;;4.28;4.03;;;;;;;;;;6240752;28;20589;-77
2023/03/24 17:05:58;;;;;;;4.38;3.97;;;;;;;;;;6240607;28;20292;-76
2023/03/24 17:09:04;;;;;;;4.57;4.30;;;;;;;;;;6238068;28;20292;-76
2023/03/24 17:12:10;;;;;;;5.95;5.43;;;;;;;;;;6226738;28;20285;-75
2023/03/24 17:15:18;;;;;;;5.15;4.85;;;;;;;;;;6238774;28;20304;-75
2023/03/24 17:18:25;;;;;;;5.20;4.78;;;;;;;;;;6237308;28;20304;-76
2023/03/24 17:21:30;;;;;;;5.63;5.22;;;;;;;;;;6238881;28;20291;-77
2023/03/24 17:24:40;;;;;;;5.53;5.15;;;;;;;;;;6237834;28;20296;-76
2023/03/24 17:27:45;;;;;;;4.80;4.50;;;;;;;;;;6238102;28;20293;-75
2023/03/24 17:30:51;;;;;;;4.88;4.57;;;;;;;;;;6240559;28;20301;-78
2023/03/24 17:33:58;;;;;;;5.10;4.80;;;;;;;;;;6237329;28;20300;-76
2023/03/24 17:37:13;;;;;;;4.95;4.65;;;;;;;;;;6237591;28;20670;-75
2023/03/24 17:40:21;;;;;;;4.80;4.55;;;;;;;;;;6221320;28;20300;-77
2023/03/24 17:43:27;;;;;;;4.90;4.60;;;;;;;;;;6238384;28;20568;-77
2023/03/24 17:46:32;;;;;;;4.93;4.63;;;;;;;;;;6238356;28;20296;-76
2023/03/24 17:49:39;;;;;;;4.95;4.55;;;;;;;;;;6237056;28;20288;-77
2023/03/24 17:52:46;;;;;;;4.53;4.20;;;;;;;;;;6237193;28;20264;-77
2023/03/24 17:55:51;;;;;;;5.05;4.70;;;;;;;;;;6237494;28;20268;-75
2023/03/24 17:58:58;;;;;;;6.20;5.63;;;;;;;;;;6237535;28;20296;-75
2023/03/24 18:02:04;;;;;;;7.53;6.93;;;;;;;;;;6237518;28;20288;-75
2023/03/24 18:05:12;;;;;;;6.05;5.55;;;;;;;;;;6237521;28;20297;-76
2023/03/24 18:08:17;;;;;;;4.50;4.30;;;;;;;;;;6237421;28;20292;-75
2023/03/24 18:11:22;;;;;;;4.55;4.25;;;;;;;;;;6223387;28;20293;-76
2023/03/24 18:14:28;;;;;;;3.60;3.50;;;;;;;;;;6213001;28;20297;-76
2023/03/24 18:17:33;;;;;;;3.92;3.58;;;;;;;;;;6213563;28;20306;-76
2023/03/24 18:20:40;;;;;;;3.10;2.90;;;;;;;;;;6212568;28;20296;-76
2023/03/24 18:23:45;;;;;;;3.45;3.33;;;;;;;;;;6211908;28;20309;-75
2023/03/24 18:26:51;;;;;;;3.20;3.10;;;;;;;;;;6213240;28;20300;-75
2023/03/24 18:29:56;;;;;;;2.80;2.53;;;;;;;;;;6212472;28;20293;-76
2023/03/24 18:33:02;;;;;;;2.00;2.00;;;;;;;;;;6212735;28;20305;-76
2023/03/24 18:36:09;;;;;;;2.22;2.22;;;;;;;;;;6212723;28;20293;-76
2023/03/24 18:39:15;;;;;;;2.25;2.25;;;;;;;;;;6211740;28;20305;-76
2023/03/24 18:42:20;;;;;;;1.65;1.55;;;;;;;;;;6212586;28;20308;-75
2023/03/24 18:45:25;;;;;;;1.23;1.23;;;;;;;;;;6212199;28;20304;-76
2023/03/24 18:48:30;;;;;;;1.85;1.27;;;;;;;;;;6212239;28;20302;-75
2023/03/24 18:51:37;;;;;;;1.30;1.30;;;;;;;;;;6213238;28;20289;-74
2023/03/24 18:54:43;;;;;;;1.50;1.13;;;;;;;;;;6192544;28;20304;-76